Time;durP1;ratioP1;P1;durP2;ratioP2;P2;SDS_P1;SDS_P2;PMS_P1;PMS_P2;Temp;Humidity;BMP_temperature;BMP_pressure;BME280_temperature;BME280_humidity;BME280_pressure;Samples;Min_cycle;Max_cycle;Signal;HPM_P1;HPM_P2
2022/06/23 00:02:23;;;;;;;4.22;2.60;;;17.00;99.90;;;;;;5057524;28;20595;-83
2022/06/23 00:04:51;;;;;;;5.28;2.85;;;17.00;99.90;;;;;;5054793;28;20199;-82
2022/06/23 00:07:24;;;;;;;3.10;2.78;;;16.90;99.90;;;;;;5038402;28;20183;-82
2022/06/23 00:09:55;;;;;;;3.50;2.58;;;16.80;99.90;;;;;;5038509;28;20229;-83
2022/06/23 00:12:32;;;;;;;4.63;2.85;;;16.70;99.90;;;;;;5054457;28;20179;-83
2022/06/23 00:15:01;;;;;;;3.60;3.20;;;16.70;99.90;;;;;;5053635;28;20579;-83
2022/06/23 00:17:42;;;;;;;3.22;2.90;;;16.70;99.90;;;;;;5053929;28;20178;-82
2022/06/23 00:20:14;;;;;;;3.17;2.88;;;16.70;99.90;;;;;;5054389;28;20267;-83
2022/06/23 00:22:45;;;;;;;3.65;2.88;;;16.70;99.90;;;;;;5054561;28;20197;-82
2022/06/23 00:25:26;;;;;;;4.95;3.05;;;16.80;99.90;;;;;;5038620;28;20199;-81
2022/06/23 00:27:53;;;;;;;5.50;3.03;;;16.80;99.90;;;;;;5037427;28;20179;-81
2022/06/23 00:30:23;;;;;;;8.15;3.58;;;16.60;99.90;;;;;;5039010;28;20224;-81
2022/06/23 00:32:49;;;;;;;3.72;3.13;;;16.60;99.90;;;;;;5038810;28;20546;-81
2022/06/23 00:35:17;;;;;;;3.03;2.72;;;16.50;99.90;;;;;;5054093;28;20217;-82
2022/06/23 00:37:51;;;;;;;3.63;2.95;;;16.50;99.90;;;;;;5054547;28;20606;-82
2022/06/23 00:40:23;;;;;;;3.38;3.00;;;16.50;99.90;;;;;;5055580;28;20183;-82
2022/06/23 00:43:00;;;;;;;3.47;3.15;;;16.50;99.90;;;;;;5058119;28;20175;-83
2022/06/23 00:45:45;;;;;;;4.70;2.97;;;16.50;99.90;;;;;;5059192;28;20262;-83
2022/06/23 00:48:31;;;;;;;4.38;3.13;;;16.40;99.90;;;;;;5042923;28;20163;-83
2022/06/23 00:51:12;;;;;;;4.65;3.08;;;16.40;99.90;;;;;;5042829;28;20183;-84
2022/06/23 00:54:04;;;;;;;4.43;3.10;;;16.40;99.90;;;;;;5058677;28;20242;-83
2022/06/23 00:56:42;;;;;;;9.05;3.80;;;16.40;99.90;;;;;;5042990;28;20258;-82
2022/06/23 00:59:37;;;;;;;5.15;3.15;;;16.40;99.90;;;;;;5058094;28;20256;-83
2022/06/23 01:02:20;;;;;;;4.65;3.22;;;16.30;99.90;;;;;;5058136;28;20171;-83
2022/06/23 01:05:15;;;;;;;4.80;3.10;;;16.10;99.90;;;;;;5041341;28;20202;-83
2022/06/23 01:07:51;;;;;;;3.53;2.63;;;16.10;99.90;;;;;;5057316;28;20175;-82
2022/06/23 01:10:55;;;;;;;4.65;2.97;;;16.00;99.90;;;;;;5056659;28;20183;-82
2022/06/23 01:13:30;;;;;;;3.05;2.78;;;16.00;99.90;;;;;;5029552;28;20256;-82
2022/06/23 01:16:03;;;;;;;3.70;3.25;;;16.00;99.90;;;;;;5057153;28;20221;-82
2022/06/23 01:18:48;;;;;;;3.45;3.15;;;15.90;99.90;;;;;;5057129;28;20715;-83
2022/06/23 01:21:24;;;;;;;3.33;3.03;;;15.80;99.90;;;;;;5057132;28;20191;-83
2022/06/23 01:23:57;;;;;;;4.35;3.50;;;15.70;99.90;;;;;;5057525;28;20210;-83
2022/06/23 01:26:22;;;;;;;4.13;3.03;;;15.70;99.90;;;;;;5057310;28;20199;-82
2022/06/23 01:28:56;;;;;;;4.85;2.78;;;15.60;99.90;;;;;;5055574;28;20179;-80
2022/06/23 01:31:50;;;;;;;5.00;3.25;;;15.60;99.90;;;;;;5039443;28;20197;-80
2022/06/23 01:34:40;;;;;;;4.82;2.95;;;15.50;99.90;;;;;;5038557;28;20183;-80
2022/06/23 01:37:28;;;;;;;6.40;3.70;;;15.40;99.90;;;;;;5055073;28;20177;-80
2022/06/23 01:40:10;;;;;;;4.90;3.50;;;15.40;99.90;;;;;;5054897;28;20551;-80
2022/06/23 01:42:47;;;;;;;5.15;3.60;;;15.40;99.90;;;;;;5040868;28;20620;-81
2022/06/23 01:45:38;;;;;;;5.90;3.50;;;15.40;99.90;;;;;;5056103;28;20553;-81
2022/06/23 01:51:33;;;;;;;5.40;3.33;;;15.30;99.90;;;;;;5038323;28;20167;-79
2022/06/23 01:54:13;;;;;;;4.85;3.83;;;15.30;99.90;;;;;;5052994;28;20183;-79
2022/06/23 01:56:50;;;;;;;4.53;3.50;;;15.30;99.90;;;;;;5052674;28;20703;-79
2022/06/23 01:59:28;;;;;;;4.30;3.60;;;15.20;99.90;;;;;;5053380;28;20218;-79
2022/06/23 02:02:14;;;;;;;4.25;3.47;;;15.20;99.90;;;;;;5053367;28;20224;-79
2022/06/23 02:05:02;;;;;;;4.35;3.42;;;15.20;99.90;;;;;;5052928;28;20210;-79
2022/06/23 02:07:37;;;;;;;6.10;3.80;;;15.20;99.90;;;;;;5037788;28;20168;-79
2022/06/23 02:10:21;;;;;;;4.95;3.78;;;15.10;99.90;;;;;;5053338;28;20185;-79
2022/06/23 02:13:07;;;;;;;5.63;3.70;;;15.00;99.90;;;;;;5053522;28;20558;-79
2022/06/23 02:16:04;;;;;;;4.13;3.55;;;14.90;99.90;;;;;;5052940;28;20211;-79
2022/06/23 02:18:56;;;;;;;5.07;3.70;;;14.80;99.90;;;;;;5052114;28;20185;-80
2022/06/23 02:21:43;;;;;;;6.28;3.97;;;14.70;99.90;;;;;;5019445;28;20179;-81
2022/06/23 02:24:48;;;;;;;4.15;3.63;;;14.70;99.90;;;;;;5057705;28;20174;-81
2022/06/23 02:27:40;;;;;;;4.72;3.70;;;14.70;99.90;;;;;;5024075;28;20719;-81
2022/06/23 02:30:18;;;;;;;5.03;3.88;;;14.70;99.90;;;;;;5029606;28;20183;-81
2022/06/23 02:32:57;;;;;;;6.35;3.97;;;14.70;99.90;;;;;;5064621;28;20601;-80
2022/06/23 02:35:30;;;;;;;3.95;3.65;;;14.70;99.90;;;;;;5057358;28;20210;-80
2022/06/23 02:38:03;;;;;;;6.68;3.97;;;14.70;99.90;;;;;;5040505;28;20166;-83
2022/06/23 02:40:35;;;;;;;5.28;4.05;;;14.70;99.90;;;;;;5059958;28;20305;-82
2022/06/23 02:43:25;;;;;;;4.65;4.05;;;14.70;99.90;;;;;;5040707;28;20199;-82
2022/06/23 02:46:01;;;;;;;5.60;3.95;;;14.70;99.90;;;;;;5040785;28;20634;-81
2022/06/23 02:48:42;;;;;;;8.85;4.10;;;14.70;99.90;;;;;;5058146;28;20317;-82
2022/06/23 02:51:13;;;;;;;5.57;4.00;;;14.70;99.90;;;;;;5042915;28;20205;-82
2022/06/23 02:53:48;;;;;;;6.40;4.20;;;14.60;99.90;;;;;;5044325;28;20636;-82
2022/06/23 02:56:36;;;;;;;5.57;4.28;;;14.60;99.90;;;;;;5059160;28;20707;-81
2022/06/23 02:59:08;;;;;;;5.63;4.22;;;14.60;99.90;;;;;;5059427;28;20191;-82
2022/06/23 03:02:01;;;;;;;8.90;4.68;;;14.50;99.90;;;;;;5043702;28;20182;-82
2022/06/23 03:04:32;;;;;;;4.68;4.13;;;14.50;99.90;;;;;;5044382;28;20183;-81
2022/06/23 03:07:03;;;;;;;7.63;5.22;;;14.50;99.90;;;;;;5044811;28;20155;-82
2022/06/23 03:09:36;;;;;;;5.95;4.28;;;14.50;99.90;;;;;;5045284;28;20179;-82
2022/06/23 03:12:18;;;;;;;5.07;4.57;;;14.40;99.90;;;;;;5045176;28;20221;-82
2022/06/23 03:15:02;;;;;;;7.80;4.35;;;14.30;99.90;;;;;;5043881;28;20691;-82
2022/06/23 03:17:35;;;;;;;5.80;4.53;;;14.20;99.90;;;;;;5060103;28;20179;-83
2022/06/23 03:20:18;;;;;;;6.38;4.65;;;14.00;99.90;;;;;;5058820;28;20658;-82
2022/06/23 03:22:47;;;;;;;6.82;4.15;;;14.00;99.90;;;;;;5044983;28;20170;-82
2022/06/23 03:25:15;;;;;;;6.28;4.72;;;14.10;99.90;;;;;;5059267;28;20203;-83
2022/06/23 03:28:10;;;;;;;7.13;5.00;;;14.20;99.90;;;;;;5059462;28;20655;-82
2022/06/23 03:31:07;;;;;;;7.32;4.93;;;14.10;99.90;;;;;;5059755;28;20637;-82
2022/06/23 03:33:50;;;;;;;10.45;4.90;;;14.20;99.90;;;;;;5033606;28;20187;-81
2022/06/23 03:36:28;;;;;;;6.63;4.45;;;14.20;99.90;;;;;;5055208;28;20314;-80
2022/06/23 03:41:55;;;;;;;7.50;4.28;;;14.30;99.90;;;;;;5040913;28;20209;-80
2022/06/23 03:44:53;;;;;;;6.72;4.38;;;14.30;99.90;;;;;;5038742;28;20182;-80
2022/06/23 03:47:48;;;;;;;7.38;4.22;;;14.20;99.90;;;;;;5039150;28;20224;-80
2022/06/23 03:50:23;;;;;;;10.20;4.93;;;14.10;99.90;;;;;;5029841;28;20179;-81
2022/06/23 03:53:07;;;;;;;8.40;4.78;;;14.00;99.90;;;;;;5055589;28;20544;-81
2022/06/23 03:55:54;;;;;;;7.68;4.85;;;14.00;99.90;;;;;;5039894;28;20291;-80
2022/06/23 03:58:33;;;;;;;6.70;4.63;;;14.00;99.90;;;;;;5055177;28;20197;-80
2022/06/23 04:01:26;;;;;;;7.30;5.18;;;14.00;99.90;;;;;;5055928;28;20190;-80
2022/06/23 04:04:12;;;;;;;7.85;4.97;;;14.10;99.90;;;;;;5059767;28;20163;-79
2022/06/23 04:06:41;;;;;;;8.20;5.03;;;14.10;99.90;;;;;;5055981;28;20191;-80
2022/06/23 04:09:12;;;;;;;6.72;4.63;;;14.10;99.90;;;;;;5053934;28;20262;-80
2022/06/23 04:11:56;;;;;;;6.00;4.93;;;14.10;99.90;;;;;;5053679;28;20178;-80
2022/06/23 04:14:37;;;;;;;6.88;4.63;;;14.20;99.90;;;;;;5053637;28;20175;-80
2022/06/23 04:17:27;;;;;;;7.95;5.20;;;14.20;99.90;;;;;;5056137;28;20620;-79
2022/06/23 04:20:18;;;;;;;7.10;4.80;;;14.20;99.90;;;;;;5058723;28;20175;-81
2022/06/23 04:23:13;;;;;;;8.57;4.93;;;14.30;99.90;;;;;;5031297;28;20192;-81
2022/06/23 04:25:51;;;;;;;6.57;4.80;;;14.40;99.90;;;;;;5053605;28;20203;-81
2022/06/23 04:28:27;;;;;;;8.63;5.32;;;14.50;99.90;;;;;;5053837;28;20167;-80
2022/06/23 04:30:55;;;;;;;6.55;4.80;;;14.50;99.90;;;;;;5054089;28;20220;-80
2022/06/23 04:33:23;;;;;;;9.13;4.95;;;14.50;99.90;;;;;;5054730;28;20183;-80
2022/06/23 04:35:56;;;;;;;11.50;5.30;;;14.60;99.90;;;;;;5039765;28;20199;-79
2022/06/23 04:38:33;;;;;;;7.07;4.80;;;14.60;99.90;;;;;;5040640;28;20164;-79
2022/06/23 04:41:18;;;;;;;8.32;4.75;;;14.70;99.90;;;;;;5055822;28;20178;-81
2022/06/23 04:44:05;;;;;;;7.55;5.50;;;14.70;99.90;;;;;;5039334;28;20621;-81
2022/06/23 04:46:35;;;;;;;9.05;4.90;;;14.80;99.90;;;;;;5056377;28;20210;-81
2022/06/23 04:49:06;;;;;;;6.03;4.82;;;14.90;99.90;;;;;;5055286;28;20255;-81
2022/06/23 04:51:46;;;;;;;8.40;4.53;;;15.00;99.90;;;;;;5040497;28;20156;-81
2022/06/23 04:54:20;;;;;;;9.18;4.85;;;15.10;99.90;;;;;;5056485;28;20183;-81
2022/06/23 04:56:52;;;;;;;7.25;4.90;;;15.10;99.90;;;;;;5059006;28;20167;-82
2022/06/23 04:59:33;;;;;;;9.50;5.53;;;15.20;99.90;;;;;;5057675;28;20274;-80
2022/06/23 05:02:03;;;;;;;9.40;5.18;;;15.30;99.90;;;;;;5056965;28;20171;-81
2022/06/23 05:04:39;;;;;;;5.53;4.47;;;15.30;99.90;;;;;;5057904;28;20175;-81
2022/06/23 05:07:05;;;;;;;12.27;5.30;;;15.40;99.90;;;;;;5041539;28;20170;-82
2022/06/23 05:09:42;;;;;;;12.05;5.53;;;15.50;99.90;;;;;;5056782;28;20667;-82
2022/06/23 05:12:14;;;;;;;8.98;4.93;;;15.60;99.90;;;;;;5038502;28;20195;-82
2022/06/23 05:15:10;;;;;;;6.43;5.05;;;15.60;99.90;;;;;;5055816;28;20229;-82
2022/06/23 05:17:45;;;;;;;9.30;5.43;;;15.70;99.90;;;;;;5040073;28;20242;-82
2022/06/23 05:20:29;;;;;;;8.95;4.93;;;15.80;99.90;;;;;;5055674;28;20163;-81
2022/06/23 05:22:54;;;;;;;7.70;5.32;;;15.90;99.90;;;;;;5055681;28;20193;-80
2022/06/23 05:25:39;;;;;;;6.05;4.93;;;16.00;99.90;;;;;;5054407;28;20206;-80
2022/06/23 05:28:12;;;;;;;6.85;5.30;;;16.10;99.90;;;;;;5037867;28;20712;-81
2022/06/23 05:30:46;;;;;;;8.88;4.72;;;16.20;99.90;;;;;;5054365;28;20183;-81
2022/06/23 05:33:23;;;;;;;8.05;5.70;;;16.30;99.90;;;;;;5038852;28;20166;-80
2022/06/23 05:36:00;;;;;;;6.35;4.85;;;16.40;99.90;;;;;;5038569;28;20213;-80
2022/06/23 05:38:30;;;;;;;6.20;4.97;;;16.50;99.90;;;;;;5042720;28;20163;-79
2022/06/23 05:41:02;;;;;;;8.65;4.93;;;16.60;99.90;;;;;;5057905;28;20523;-81
2022/06/23 05:43:31;;;;;;;7.03;5.00;;;16.70;99.90;;;;;;5054759;28;20171;-82
2022/06/23 05:46:01;;;;;;;6.22;4.60;;;16.80;99.90;;;;;;5054583;28;20210;-82
2022/06/23 05:48:38;;;;;;;8.10;4.18;;;16.90;99.90;;;;;;5053563;28;20176;-81
2022/06/23 05:51:10;;;;;;;8.55;5.28;;;17.00;99.90;;;;;;5036272;28;20248;-81
2022/06/23 05:53:48;;;;;;;4.70;4.10;;;17.10;99.90;;;;;;5053235;28;20557;-81
2022/06/23 05:56:49;;;;;;;5.05;3.83;;;17.20;99.90;;;;;;5052842;28;20305;-80
2022/06/23 05:59:53;;;;;;;7.88;4.40;;;17.40;99.90;;;;;;5052814;28;20194;-81
2022/06/23 06:02:42;;;;;;;5.43;4.57;;;17.50;99.90;;;;;;5034922;28;20252;-80
2022/06/23 06:05:20;;;;;;;8.55;4.10;;;17.60;99.90;;;;;;5036753;28;20199;-80
2022/06/23 06:07:45;;;;;;;7.75;4.32;;;17.70;99.90;;;;;;5052666;28;20174;-80
2022/06/23 06:10:17;;;;;;;5.78;4.10;;;17.90;99.90;;;;;;5038417;28;20183;-80
2022/06/23 06:12:44;;;;;;;5.45;4.00;;;18.00;99.90;;;;;;5037634;28;20166;-80
2022/06/23 06:15:27;;;;;;;6.28;4.32;;;18.10;99.90;;;;;;5037141;28;20219;-80
2022/06/23 06:18:03;;;;;;;7.53;3.97;;;18.30;99.90;;;;;;5051347;28;20189;-80
2022/06/23 06:20:28;;;;;;;4.25;3.85;;;18.40;99.90;;;;;;5051651;28;20169;-84
2022/06/23 06:23:05;;;;;;;6.22;4.05;;;18.50;99.90;;;;;;5051382;28;20175;-84
2022/06/23 06:25:38;;;;;;;9.65;3.75;;;18.60;99.90;;;;;;5052323;28;20672;-84
2022/06/23 06:28:23;;;;;;;5.15;3.83;;;18.70;99.90;;;;;;5051726;28;20178;-84
2022/06/23 06:30:59;;;;;;;5.85;3.83;;;18.90;99.90;;;;;;5051391;28;20171;-82
2022/06/23 06:33:39;;;;;;;6.82;3.50;;;19.00;99.90;;;;;;5051700;28;20166;-82
2022/06/23 06:36:31;;;;;;;4.88;3.67;;;19.20;99.90;;;;;;5051517;28;20222;-82
2022/06/23 06:39:03;;;;;;;6.13;3.60;;;19.30;99.90;;;;;;5050987;28;20539;-82
2022/06/23 06:41:30;;;;;;;7.25;3.80;;;19.40;99.90;;;;;;5034640;28;20171;-82
2022/06/23 06:43:57;;;;;;;6.05;3.40;;;19.50;99.90;;;;;;5035281;28;20166;-82
2022/06/23 06:46:22;;;;;;;7.47;3.60;;;19.60;99.90;;;;;;5051273;28;20266;-82
2022/06/23 06:48:48;;;;;;;4.60;3.45;;;19.80;99.90;;;;;;5037093;28;20661;-82
2022/06/23 06:51:22;;;;;;;7.00;4.18;;;19.90;99.90;;;;;;5035036;28;20189;-82
2022/06/23 06:53:57;;;;;;;8.20;4.22;;;20.00;99.90;;;;;;5035809;28;20159;-82
2022/06/23 06:56:52;;;;;;;6.15;3.60;;;20.10;99.90;;;;;;5036078;28;20225;-82
2022/06/23 06:59:27;;;;;;;5.07;3.20;;;20.20;99.90;;;;;;5033368;28;20669;-82
2022/06/23 07:02:21;;;;;;;5.97;3.17;;;20.30;99.90;;;;;;5050753;28;20684;-82
2022/06/23 07:04:55;;;;;;;4.30;3.45;;;20.40;99.90;;;;;;5028706;28;20207;-82
2022/06/23 07:07:29;;;;;;;6.22;3.70;;;20.40;99.90;;;;;;5052225;28;20173;-80
2022/06/23 07:10:04;;;;;;;4.75;3.30;;;20.50;99.90;;;;;;5039179;28;20170;-80
2022/06/23 07:12:39;;;;;;;6.00;3.40;;;20.60;99.90;;;;;;5040663;28;20170;-80
2022/06/23 07:15:34;;;;;;;4.95;3.42;;;20.70;99.90;;;;;;5056004;28;20261;-80
2022/06/23 07:18:21;;;;;;;6.30;3.78;;;20.90;99.90;;;;;;5055118;28;20186;-80
2022/06/23 07:21:17;;;;;;;6.75;3.35;;;21.00;99.90;;;;;;5037248;28;20167;-80
2022/06/23 07:23:48;;;;;;;4.28;3.10;;;21.10;99.90;;;;;;5029713;28;20715;-80
2022/06/23 07:26:28;;;;;;;6.90;3.40;;;21.20;99.90;;;;;;5053473;28;20245;-80
2022/06/23 07:29:05;;;;;;;3.70;2.88;;;21.40;99.90;;;;;;5053200;28;20170;-80
2022/06/23 07:31:55;;;;;;;5.22;3.20;;;21.50;99.90;;;;;;5054837;28;20179;-81
2022/06/23 07:34:25;;;;;;;4.60;3.13;;;21.60;99.90;;;;;;5039205;28;20167;-81
2022/06/23 07:37:31;;;;;;;8.25;3.55;;;21.70;99.90;;;;;;5040678;28;20175;-81
2022/06/23 07:40:03;;;;;;;6.13;3.83;;;21.90;99.90;;;;;;5039851;28;20607;-81
2022/06/23 07:43:01;;;;;;;7.53;3.95;;;22.00;99.90;;;;;;5056926;28;20180;-81
2022/06/23 07:45:35;;;;;;;4.60;3.30;;;22.20;99.90;;;;;;5057710;28;20260;-81
2022/06/23 07:48:01;;;;;;;5.22;3.53;;;22.40;99.90;;;;;;5055207;28;20274;-82
2022/06/23 07:50:28;;;;;;;4.93;3.33;;;22.60;99.90;;;;;;5056369;28;20197;-82
2022/06/23 07:52:55;;;;;;;4.45;3.30;;;22.80;99.90;;;;;;5041858;28;20543;-82
2022/06/23 07:55:28;;;;;;;5.60;3.17;;;22.90;99.90;;;;;;5059667;28;20237;-82
2022/06/23 07:57:55;;;;;;;5.25;3.10;;;23.00;99.90;;;;;;5058816;28;20218;-83
2022/06/23 08:00:23;;;;;;;5.03;3.35;;;23.10;99.90;;;;;;5059459;28;20190;-83
2022/06/23 08:03:00;;;;;;;4.80;3.25;;;23.30;99.90;;;;;;5057843;28;20169;-82
2022/06/23 08:05:48;;;;;;;4.20;3.22;;;23.40;99.90;;;;;;5038233;28;20213;-82
2022/06/23 08:08:20;;;;;;;7.35;3.45;;;23.50;99.90;;;;;;5054385;28;20599;-82
2022/06/23 08:10:48;;;;;;;4.70;3.10;;;23.80;99.90;;;;;;5053557;28;20293;-82
2022/06/23 08:13:27;;;;;;;5.88;3.47;;;24.00;99.90;;;;;;5054447;28;20702;-82
2022/06/23 08:18:56;;;;;;;6.45;3.25;;;24.30;99.90;;;;;;5038096;28;20171;-82
2022/06/23 08:21:29;;;;;;;4.97;3.03;;;24.60;99.90;;;;;;5036648;28;20175;-82
2022/06/23 08:24:00;;;;;;;6.32;3.03;;;24.60;99.90;;;;;;5053456;28;20274;-82
2022/06/23 08:26:27;;;;;;;5.70;3.40;;;24.80;99.90;;;;;;5052849;28;20683;-82
2022/06/23 08:28:57;;;;;;;6.07;3.53;;;24.90;99.90;;;;;;5037734;28;20233;-82
2022/06/23 08:31:25;;;;;;;5.20;2.63;;;25.10;99.90;;;;;;5037983;28;20171;-82
2022/06/23 08:33:51;;;;;;;5.13;3.00;;;25.20;99.90;;;;;;5037955;28;20167;-82
2022/06/23 08:36:21;;;;;;;4.13;3.10;;;25.20;99.90;;;;;;5052616;28;20207;-82
2022/06/23 08:39:05;;;;;;;4.88;3.08;;;25.30;99.90;;;;;;5053159;28;20555;-82
2022/06/23 08:41:50;;;;;;;4.28;3.17;;;25.30;99.90;;;;;;5037836;28;20579;-82
2022/06/23 08:44:36;;;;;;;5.95;3.50;;;25.40;99.90;;;;;;5052283;28;20171;-82
2022/06/23 08:47:19;;;;;;;5.15;3.35;;;25.50;99.90;;;;;;5053099;28;20171;-82
2022/06/23 08:50:05;;;;;;;3.50;2.67;;;25.60;99.90;;;;;;5038344;28;20613;-82
2022/06/23 08:52:44;;;;;;;4.72;3.08;;;25.80;99.90;;;;;;5052945;28;20205;-82
2022/06/23 08:55:36;;;;;;;5.05;3.17;;;25.90;99.90;;;;;;5052483;28;20217;-82
2022/06/23 08:58:21;;;;;;;4.40;2.67;;;26.10;99.90;;;;;;5052303;28;20187;-83
2022/06/23 09:01:13;;;;;;;3.70;2.95;;;26.30;99.90;;;;;;5051713;28;20694;-81
2022/06/23 09:04:04;;;;;;;4.00;3.05;;;26.50;99.90;;;;;;5035929;28;20166;-81
2022/06/23 09:06:54;;;;;;;3.35;2.38;;;26.70;99.90;;;;;;5051217;28;20199;-81
2022/06/23 09:09:20;;;;;;;3.83;2.97;;;26.80;99.90;;;;;;5037091;28;20624;-82
2022/06/23 09:12:23;;;;;;;5.88;3.30;;;27.00;99.90;;;;;;5053371;28;20190;-82
2022/06/23 09:15:08;;;;;;;6.97;3.05;;;27.10;99.90;;;;;;5053234;28;20210;-81
2022/06/23 09:18:15;;;;;;;3.85;3.03;;;27.40;99.90;;;;;;5037590;28;20171;-81
2022/06/23 09:21:05;;;;;;;4.53;2.88;;;27.60;99.90;;;;;;5036931;28;20183;-81
2022/06/23 09:23:34;;;;;;;7.50;4.45;;;27.70;99.90;;;;;;5052151;28;20233;-81
2022/06/23 09:26:36;;;;;;;5.22;3.45;;;27.90;99.90;;;;;;5038777;28;20199;-84
2022/06/23 09:29:27;;;;;;;7.47;3.60;;;28.20;99.90;;;;;;5031106;28;20198;-85
2022/06/23 09:32:16;;;;;;;5.40;2.90;;;28.30;99.90;;;;;;5019274;28;20187;-84
2022/06/23 09:35:20;;;;;;;3.85;3.10;;;28.50;99.90;;;;;;5054455;28;20215;-84
2022/06/23 09:38:07;;;;;;;4.80;2.95;;;28.60;99.90;;;;;;5052708;28;20619;-85
2022/06/23 09:40:35;;;;;;;4.85;2.90;;;28.70;99.90;;;;;;5052462;28;20685;-84
2022/06/23 09:43:17;;;;;;;4.50;2.83;;;28.80;99.90;;;;;;5053548;28;20206;-84
2022/06/23 09:45:54;;;;;;;5.65;3.00;;;28.90;99.90;;;;;;5053523;28;20222;-84
2022/06/23 09:48:47;;;;;;;3.65;2.58;;;29.00;99.90;;;;;;5052899;28;20621;-84
2022/06/23 09:51:52;;;;;;;11.98;3.30;;;29.20;99.90;;;;;;5052661;28;20214;-84
2022/06/23 09:54:39;;;;;;;4.55;2.70;;;29.30;99.90;;;;;;5034164;28;20187;-84
2022/06/23 09:57:30;;;;;;;7.82;3.28;;;29.40;99.90;;;;;;5053058;28;20178;-82
2022/06/23 10:00:05;;;;;;;5.70;2.90;;;29.50;99.90;;;;;;5037570;28;20209;-83
2022/06/23 10:02:58;;;;;;;5.65;2.63;;;29.50;99.90;;;;;;5052679;28;20592;-83
2022/06/23 10:05:46;;;;;;;3.97;2.78;;;29.60;99.90;;;;;;5053772;28;20203;-83
2022/06/23 10:08:27;;;;;;;3.55;2.92;;;29.70;99.90;;;;;;5054523;28;20607;-83
2022/06/23 10:11:06;;;;;;;3.58;2.90;;;29.80;99.90;;;;;;5045061;28;20167;-84
2022/06/23 10:13:56;;;;;;;2.90;2.50;;;29.80;99.90;;;;;;5056458;28;20167;-83
2022/06/23 10:16:58;;;;;;;4.65;2.75;;;29.90;99.90;;;;;;5052430;28;20211;-84
2022/06/23 10:19:47;;;;;;;4.18;2.72;;;30.00;99.90;;;;;;5052597;28;20170;-84
2022/06/23 10:22:33;;;;;;;4.30;2.78;;;30.00;99.90;;;;;;5053245;28;20163;-84
2022/06/23 10:25:24;;;;;;;3.60;2.97;;;30.00;99.90;;;;;;5037434;28;20220;-86
2022/06/23 10:28:11;;;;;;;3.30;2.80;;;30.00;99.90;;;;;;5052966;28;20177;-86
2022/06/23 10:30:37;;;;;;;3.97;2.75;;;30.00;99.90;;;;;;5050870;28;20167;-86
2022/06/23 10:33:28;;;;;;;5.55;3.13;;;30.10;99.90;;;;;;5050535;28;20636;-86
2022/06/23 10:36:13;;;;;;;4.00;3.05;;;30.10;99.90;;;;;;5050075;28;20372;-86
2022/06/23 10:38:51;;;;;;;5.15;2.88;;;30.10;99.90;;;;;;5050594;28;20167;-86
2022/06/23 10:41:52;;;;;;;4.32;2.60;;;30.20;99.90;;;;;;5034660;28;20191;-86
2022/06/23 10:44:37;;;;;;;3.75;2.83;;;30.20;99.90;;;;;;5054448;28;20682;-86
2022/06/23 10:47:31;;;;;;;5.63;3.30;;;30.40;99.90;;;;;;5054771;28;20175;-86
2022/06/23 10:50:12;;;;;;;2.95;2.47;;;30.30;99.90;;;;;;5054791;28;20172;-87
2022/06/23 10:53:00;;;;;;;7.18;2.55;;;30.40;99.90;;;;;;5054621;28;20213;-89
2022/06/23 10:55:49;;;;;;;4.07;2.63;;;30.50;99.90;;;;;;5037125;28;20261;-89
2022/06/23 10:58:24;;;;;;;3.95;2.90;;;30.60;99.90;;;;;;5054345;28;20281;-89
2022/06/23 11:01:15;;;;;;;6.20;2.80;;;30.70;99.90;;;;;;5054295;28;20179;-89
2022/06/23 11:03:40;;;;;;;3.75;2.90;;;30.70;99.90;;;;;;5054676;28;20180;-89
2022/06/23 11:06:18;;;;;;;3.47;2.47;;;30.70;99.90;;;;;;5053460;28;20693;-89
2022/06/23 11:08:49;;;;;;;6.13;3.35;;;30.80;99.90;;;;;;5053778;28;20190;-89
2022/06/23 11:11:36;;;;;;;4.00;3.00;;;30.90;99.90;;;;;;5053756;28;20175;-89
2022/06/23 11:14:27;;;;;;;4.15;2.83;;;30.80;99.90;;;;;;5053622;28;20167;-89
2022/06/23 11:17:03;;;;;;;4.57;2.88;;;30.90;99.90;;;;;;5053390;28;20179;-89
2022/06/23 11:19:41;;;;;;;2.70;2.50;;;31.00;99.90;;;;;;5054371;28;20651;-89
2022/06/23 11:22:26;;;;;;;4.05;2.90;;;31.20;99.90;;;;;;5039918;28;20164;-89
2022/06/23 11:25:06;;;;;;;3.67;2.83;;;31.40;99.90;;;;;;5039201;28;20195;-89
2022/06/23 11:27:59;;;;;;;3.95;2.95;;;31.50;99.90;;;;;;5054003;28;20619;-89
2022/06/23 11:30:44;;;;;;;4.88;2.70;;;31.50;99.90;;;;;;5054107;28;20179;-89
2022/06/23 11:33:36;;;;;;;5.97;3.33;;;31.40;99.90;;;;;;5054113;28;20171;-89
2022/06/23 11:36:32;;;;;;;5.43;3.05;;;31.40;99.90;;;;;;5054338;28;20264;-89
2022/06/23 11:39:14;;;;;;;4.15;2.63;;;31.50;99.90;;;;;;5054750;28;20175;-90
2022/06/23 11:41:56;;;;;;;4.57;3.10;;;31.60;99.90;;;;;;5036656;28;20621;-90
2022/06/23 11:44:22;;;;;;;3.22;2.92;;;31.90;99.90;;;;;;5053815;28;20579;-89
2022/06/23 11:47:06;;;;;;;4.13;3.20;;;32.10;99.90;;;;;;5037827;28;20191;-89
2022/06/23 11:49:44;;;;;;;2.83;2.60;;;32.30;99.90;;;;;;5052620;28;20175;-89
2022/06/23 11:52:28;;;;;;;3.05;2.85;;;32.50;99.90;;;;;;5052592;28;20187;-89
2022/06/23 11:55:05;;;;;;;2.90;2.60;;;32.80;99.90;;;;;;5052706;28;20211;-89
2022/06/23 11:57:43;;;;;;;5.47;2.92;;;32.90;99.60;;;;;;5052591;28;20670;-89
2022/06/23 12:00:11;;;;;;;3.67;2.88;;;33.00;99.20;;;;;;5052810;28;20175;-89
2022/06/23 12:02:59;;;;;;;3.58;2.60;;;33.10;99.40;;;;;;5053070;28;20254;-89
2022/06/23 12:05:50;;;;;;;3.08;2.78;;;33.20;99.90;;;;;;5053038;28;20195;-89
2022/06/23 12:08:30;;;;;;;5.40;2.95;;;33.30;99.60;;;;;;5038136;28;20206;-89
2022/06/23 12:10:56;;;;;;;4.18;2.88;;;33.50;98.00;;;;;;5053412;28;20182;-89
2022/06/23 12:13:23;;;;;;;5.15;3.00;;;33.70;98.80;;;;;;5053705;28;20549;-89
2022/06/23 12:15:51;;;;;;;4.20;3.05;;;33.80;97.80;;;;;;5036484;28;20234;-89
2022/06/23 12:18:38;;;;;;;6.38;2.63;;;33.40;97.00;;;;;;5037006;28;20171;-89
2022/06/23 12:21:30;;;;;;;3.17;2.65;;;33.20;97.60;;;;;;5037635;28;20266;-89
2022/06/23 12:24:03;;;;;;;4.40;2.85;;;33.30;98.80;;;;;;5053418;28;20179;-89
2022/06/23 12:26:40;;;;;;;4.10;2.67;;;33.40;97.40;;;;;;5052967;28;20194;-89
2022/06/23 12:29:13;;;;;;;5.18;2.95;;;33.50;97.60;;;;;;5053113;28;20632;-89
2022/06/23 12:32:11;;;;;;;3.42;2.65;;;33.80;97.50;;;;;;5052300;28;20183;-89
2022/06/23 12:35:04;;;;;;;3.20;2.90;;;33.80;98.10;;;;;;5052628;28;20167;-88
2022/06/23 12:37:59;;;;;;;4.13;2.88;;;33.90;97.00;;;;;;5036211;28;20234;-89
2022/06/23 12:40:57;;;;;;;5.93;2.90;;;33.90;97.50;;;;;;5029490;28;20187;-89
2022/06/23 12:43:48;;;;;;;3.95;3.00;;;34.10;97.50;;;;;;5033354;28;20253;-89
2022/06/23 12:46:23;;;;;;;4.15;2.95;;;34.30;96.90;;;;;;5054496;28;20203;-89
2022/06/23 12:48:57;;;;;;;4.55;2.95;;;34.60;96.80;;;;;;5037736;28;20246;-89
2022/06/23 12:51:57;;;;;;;4.95;3.10;;;34.60;95.60;;;;;;5053134;28;20171;-89
2022/06/23 12:54:29;;;;;;;3.08;2.78;;;34.90;96.40;;;;;;5051944;28;20203;-89
2022/06/23 12:57:06;;;;;;;6.57;3.30;;;34.80;94.10;;;;;;5036425;28;20171;-89
2022/06/23 12:59:59;;;;;;;4.00;3.05;;;34.50;94.90;;;;;;5051502;28;20181;-88
2022/06/23 13:02:33;;;;;;;5.30;3.08;;;33.90;93.90;;;;;;5051697;28;20159;-88
2022/06/23 13:05:02;;;;;;;4.75;3.35;;;33.50;96.20;;;;;;5050599;28;20256;-89
2022/06/23 13:07:30;;;;;;;7.25;2.90;;;33.70;97.40;;;;;;5051641;28;20183;-89
2022/06/23 13:10:02;;;;;;;3.60;2.72;;;34.20;97.40;;;;;;5051319;28;20270;-89
2022/06/23 13:12:48;;;;;;;4.25;2.70;;;34.80;97.70;;;;;;5051357;28;20531;-88
2022/06/23 13:15:39;;;;;;;6.70;3.30;;;35.40;95.80;;;;;;5036016;28;20199;-89
2022/06/23 13:18:33;;;;;;;3.13;2.83;;;35.80;95.80;;;;;;5051712;28;20167;-89
2022/06/23 13:21:27;;;;;;;4.70;2.80;;;35.80;96.90;;;;;;5051914;28;20171;-88
2022/06/23 13:24:02;;;;;;;4.65;3.13;;;35.80;94.30;;;;;;5051523;28;20304;-88
2022/06/23 13:26:30;;;;;;;4.03;3.08;;;35.80;95.10;;;;;;5051141;28;20201;-88
2022/06/23 13:29:00;;;;;;;4.35;2.90;;;36.00;94.60;;;;;;5051300;28;20262;-88
2022/06/23 13:31:41;;;;;;;5.88;3.03;;;35.90;93.00;;;;;;5052880;28;20179;-88
2022/06/23 13:34:18;;;;;;;3.88;2.90;;;35.90;93.20;;;;;;5050735;28;20178;-88
2022/06/23 13:37:12;;;;;;;4.05;2.90;;;36.20;95.10;;;;;;5035526;28;20207;-88
2022/06/23 13:39:57;;;;;;;4.70;3.30;;;36.70;94.80;;;;;;5019089;28;20187;-88
2022/06/23 13:42:30;;;;;;;6.55;2.95;;;36.90;94.60;;;;;;5050527;28;20170;-88
2022/06/23 13:44:59;;;;;;;4.28;2.70;;;37.10;92.50;;;;;;5035106;28;20199;-88
2022/06/23 13:47:39;;;;;;;4.95;3.08;;;37.20;91.40;;;;;;5035143;28;20177;-88
2022/06/23 13:50:16;;;;;;;5.03;2.78;;;36.70;90.90;;;;;;5050335;28;20679;-88
2022/06/23 13:52:54;;;;;;;3.92;2.80;;;36.60;92.40;;;;;;5035047;28;20617;-88
2022/06/23 13:55:39;;;;;;;9.02;2.70;;;36.50;92.60;;;;;;5050625;28;20211;-88
2022/06/23 13:58:28;;;;;;;5.78;3.17;;;36.50;91.50;;;;;;5050731;28;20222;-88
2022/06/23 14:01:04;;;;;;;5.55;2.70;;;36.20;88.60;;;;;;5035231;28;20159;-88
2022/06/23 14:03:45;;;;;;;2.78;2.40;;;35.50;90.20;;;;;;5050604;28;20205;-88